createdAt,value
2022-09-17T00:00:17.151Z,12.97
2022-09-17T00:03:20.095Z,12.89
2022-09-17T00:06:24.666Z,12.95
2022-09-17T00:09:28.210Z,12.85
2022-09-17T00:12:32.066Z,12.94
2022-09-17T00:15:41.828Z,12.93
2022-09-17T00:18:44.602Z,12.80
2022-09-17T00:21:47.515Z,12.87
2022-09-17T00:24:50.130Z,12.85
2022-09-17T00:27:53.542Z,12.81
2022-09-17T00:30:56.093Z,12.81
2022-09-17T00:34:00.283Z,12.76
2022-09-17T00:37:03.089Z,12.66
2022-09-17T00:40:06.655Z,12.65
2022-09-17T00:43:12.829Z,12.66
2022-09-17T00:46:38.692Z,12.57
2022-09-17T00:49:41.677Z,12.64
2022-09-17T00:52:50.826Z,12.62
2022-09-17T00:56:01.275Z,12.62
2022-09-17T00:59:05.494Z,12.71
2022-09-17T01:02:08.697Z,12.61
2022-09-17T01:05:15.794Z,12.56
2022-09-17T01:08:31.750Z,12.54
2022-09-17T01:11:57.090Z,12.55
2022-09-17T01:15:19.058Z,12.53
2022-09-17T01:18:47.278Z,12.63
2022-09-17T01:22:05.008Z,12.48
2022-09-17T01:25:14.160Z,12.52
2022-09-17T01:28:35.077Z,12.57
2022-09-17T01:31:53.632Z,12.53
2022-09-17T01:35:08.907Z,12.37
2022-09-17T01:38:25.153Z,12.52
2022-09-17T01:42:15.849Z,12.45
2022-09-17T01:45:27.593Z,12.45
2022-09-17T01:48:35.730Z,12.33
2022-09-17T01:51:43.245Z,12.37
2022-09-17T01:54:54.377Z,12.26
2022-09-17T01:58:07.608Z,12.16
2022-09-17T02:01:14.039Z,12.12
2022-09-17T02:04:26.667Z,12.20
2022-09-17T02:07:33.391Z,12.26
2022-09-17T02:10:47.925Z,12.14
2022-09-17T02:13:54.134Z,12.18
2022-09-17T02:17:05.816Z,12.08
2022-09-17T02:20:10.039Z,12.08
2022-09-17T02:23:29.746Z,12.10
2022-09-17T02:26:34.856Z,12.10
2022-09-17T02:29:43.574Z,12.09
2022-09-17T02:32:46.802Z,12.10
2022-09-17T02:35:49.421Z,11.98
2022-09-17T02:39:01.653Z,12.02
2022-09-17T02:42:25.732Z,11.94
2022-09-17T02:45:47.119Z,12.00
2022-09-17T02:49:07.315Z,11.95
2022-09-17T02:52:36.382Z,11.92
2022-09-17T02:55:52.962Z,11.82
2022-09-17T02:59:09.653Z,11.78
2022-09-17T03:02:19.514Z,11.80
2022-09-17T03:05:25.596Z,11.74
2022-09-17T03:08:34.492Z,11.74
2022-09-17T03:11:38.059Z,11.66
2022-09-17T03:14:40.743Z,11.71
2022-09-17T03:17:43.591Z,11.74
2022-09-17T03:20:47.148Z,11.58
2022-09-17T03:23:50.077Z,11.53
2022-09-17T03:26:52.967Z,11.52
2022-09-17T03:29:56.272Z,11.49
2022-09-17T03:32:59.053Z,11.59
2022-09-17T03:36:02.178Z,11.51
2022-09-17T03:39:05.065Z,11.55
2022-09-17T03:42:08.028Z,11.44
2022-09-17T03:45:10.733Z,11.56
2022-09-17T03:48:13.610Z,11.57
2022-09-17T03:51:16.291Z,11.50
2022-09-17T03:54:19.350Z,11.54
2022-09-17T03:57:22.882Z,11.49
2022-09-17T04:00:27.348Z,11.52
2022-09-17T04:03:30.818Z,11.44
2022-09-17T04:06:33.507Z,11.42
2022-09-17T04:09:36.588Z,11.42
2022-09-17T04:12:40.031Z,11.53
2022-09-17T04:15:46.358Z,11.46
2022-09-17T04:18:49.079Z,11.36
2022-09-17T04:21:53.104Z,11.48
2022-09-17T04:24:55.919Z,11.55
2022-09-17T04:28:23.916Z,11.57
2022-09-17T04:31:27.482Z,11.52
2022-09-17T04:34:30.778Z,11.39
2022-09-17T04:37:34.218Z,11.32
2022-09-17T04:40:48.081Z,11.47
2022-09-17T04:43:52.466Z,11.59
2022-09-17T04:46:56.022Z,11.37
2022-09-17T04:49:59.281Z,11.38
2022-09-17T04:53:02.015Z,11.46
2022-09-17T04:56:05.659Z,11.39
2022-09-17T04:59:08.349Z,11.36
2022-09-17T05:02:11.822Z,11.42
2022-09-17T05:05:25.255Z,11.50
2022-09-17T05:08:28.507Z,11.46
2022-09-17T05:11:31.310Z,11.48
2022-09-17T05:14:34.259Z,11.40
2022-09-17T05:17:37.155Z,11.44
2022-09-17T05:20:59.958Z,11.50
2022-09-17T05:24:02.880Z,11.50
2022-09-17T05:27:07.164Z,11.54
2022-09-17T05:30:11.831Z,11.49
2022-09-17T05:33:22.682Z,11.55
2022-09-17T05:36:25.462Z,11.54
2022-09-17T05:39:28.973Z,11.54
2022-09-17T05:42:31.734Z,11.56
2022-09-17T05:45:36.476Z,11.74
2022-09-17T05:48:39.293Z,11.76
2022-09-17T05:51:50.188Z,11.77
2022-09-17T05:54:58.242Z,11.86
2022-09-17T05:58:08.599Z,11.95
2022-09-17T06:01:31.293Z,11.80
2022-09-17T06:04:39.675Z,11.93
2022-09-17T06:07:45.080Z,12.01
2022-09-17T06:11:04.684Z,12.08
2022-09-17T06:15:14.827Z,12.02
2022-09-17T06:18:27.939Z,12.02
2022-09-17T06:21:51.431Z,11.98
2022-09-17T06:24:54.492Z,12.04
2022-09-17T06:27:57.444Z,12.09
2022-09-17T06:32:02.720Z,12.20
2022-09-17T06:35:10.644Z,12.16
2022-09-17T06:38:36.007Z,12.03
2022-09-17T06:41:58.637Z,11.91
2022-09-17T06:45:16.422Z,11.77
2022-09-17T06:48:19.859Z,11.76
2022-09-17T06:51:23.535Z,11.83
2022-09-17T06:54:26.147Z,11.91
2022-09-17T06:57:29.050Z,11.92
2022-09-17T07:00:31.975Z,12.04
2022-09-17T07:03:34.925Z,11.95
2022-09-17T07:06:37.691Z,11.90
2022-09-17T07:09:40.998Z,11.93
2022-09-17T07:12:49.163Z,12.09
2022-09-17T07:16:01.589Z,12.13
2022-09-17T07:19:24.104Z,12.35
2022-09-17T07:22:27.609Z,12.35
2022-09-17T07:25:30.423Z,12.51
2022-09-17T07:28:33.430Z,12.53
2022-09-17T07:31:36.155Z,12.65
2022-09-17T07:34:41.690Z,12.63
2022-09-17T07:37:44.358Z,12.52
2022-09-17T07:41:00.629Z,12.67
2022-09-17T07:44:03.459Z,12.76
2022-09-17T07:47:23.013Z,12.72
2022-09-17T08:10:48.358Z,12.86
2022-09-17T08:10:50.112Z,12.88
2022-09-17T08:14:20.459Z,12.99
2022-09-17T08:17:33.517Z,12.97
2022-09-17T08:21:23.618Z,13.07
2022-09-17T08:24:51.579Z,12.98
2022-09-17T09:07:17.579Z,13.08
2022-09-17T09:10:53.012Z,13.32
2022-09-17T09:14:04.163Z,13.33
2022-09-17T09:17:13.842Z,13.39
2022-09-17T09:21:01.849Z,13.49
2022-09-17T09:24:17.968Z,13.56
2022-09-17T09:27:55.823Z,13.74
2022-09-17T09:31:39.826Z,13.74
2022-09-17T09:35:17.209Z,13.73
2022-09-17T09:38:52.179Z,13.67
2022-09-17T10:01:20.552Z,13.44
2022-09-17T10:04:29.438Z,13.52
2022-09-17T10:07:32.356Z,13.53
2022-09-17T10:10:53.822Z,13.52
2022-09-17T10:14:23.403Z,13.53
2022-09-17T10:17:33.060Z,13.57
2022-09-17T10:20:59.472Z,13.52
2022-09-17T10:24:21.812Z,13.51
2022-09-17T10:27:26.971Z,13.42
2022-09-17T10:30:32.625Z,13.50
2022-09-17T10:33:38.168Z,13.41
2022-09-17T11:18:52.820Z,13.17
2022-09-17T11:22:16.738Z,13.13
2022-09-17T11:26:05.190Z,13.31
2022-09-17T11:30:10.430Z,13.32
2022-09-17T11:33:50.562Z,13.58
2022-09-17T12:19:42.428Z,12.96
2022-09-17T12:27:53.349Z,13.23
2022-09-17T12:43:23.432Z,13.50
2022-09-17T12:47:08.204Z,13.32
2022-09-17T12:54:52.737Z,12.98
2022-09-17T12:58:15.037Z,12.87
2022-09-17T14:14:04.410Z,12.59
2022-09-17T14:17:09.210Z,12.39
2022-09-17T14:20:13.212Z,12.50
2022-09-17T14:23:16.805Z,12.35
2022-09-17T14:27:00.461Z,12.43
2022-09-17T14:30:22.666Z,12.37
2022-09-17T14:33:32.150Z,12.20
2022-09-17T14:39:56.381Z,12.27
2022-09-17T14:43:00.454Z,12.31
2022-09-17T14:46:14.707Z,12.22
2022-09-17T14:49:21.010Z,12.22
2022-09-17T14:52:32.198Z,12.17
2022-09-17T14:55:41.368Z,12.17
2022-09-17T14:58:57.539Z,12.32
2022-09-17T15:02:01.274Z,12.14
2022-09-17T15:05:38.665Z,12.09
2022-09-17T15:08:45.772Z,12.19
2022-09-17T15:11:49.344Z,12.06
2022-09-17T15:15:05.075Z,12.08
2022-09-17T15:18:13.855Z,11.93
2022-09-17T15:21:32.581Z,11.87
2022-09-17T15:25:00.354Z,11.68
2022-09-17T15:28:24.326Z,11.68
2022-09-17T15:31:28.872Z,11.69
2022-09-17T15:34:38.958Z,11.52
2022-09-17T15:38:28.617Z,11.38
2022-09-17T15:41:36.301Z,11.34
2022-09-17T15:45:20.856Z,11.32
2022-09-17T15:48:39.539Z,11.33
2022-09-17T15:51:43.115Z,11.28
2022-09-17T15:54:46.409Z,11.28
2022-09-17T15:57:49.459Z,11.20
2022-09-17T16:01:17.616Z,11.18
2022-09-17T16:04:41.442Z,11.08
2022-09-17T16:07:47.594Z,11.11
2022-09-17T16:10:52.688Z,11.19
2022-09-17T16:36:00.575Z,11.27
2022-09-17T16:39:05.163Z,11.22
2022-09-17T16:42:08.339Z,11.24
2022-09-17T16:45:12.373Z,11.30
2022-09-17T16:48:15.197Z,11.15
2022-09-17T16:51:19.593Z,11.22
2022-09-17T16:54:22.664Z,11.18
2022-09-17T16:57:25.873Z,11.32
2022-09-17T17:00:30.867Z,11.21
2022-09-17T17:03:33.932Z,11.18
2022-09-17T17:06:40.678Z,11.21
2022-09-17T17:09:49.151Z,11.25
2022-09-17T17:12:53.066Z,11.26
2022-09-17T17:15:56.683Z,11.31
2022-09-17T17:19:20.572Z,11.16
2022-09-17T17:22:25.072Z,11.08
2022-09-17T17:25:37.058Z,11.16
2022-09-17T17:28:40.717Z,11.14
2022-09-17T17:31:43.867Z,11.02
2022-09-17T17:34:47.114Z,11.06
2022-09-17T17:37:50.322Z,11.09
2022-09-17T17:41:14.983Z,11.14
2022-09-17T17:44:17.892Z,11.14
2022-09-17T17:47:21.145Z,11.13
2022-09-17T17:50:31.747Z,11.20
2022-09-17T17:54:03.310Z,11.19
2022-09-17T17:57:11.460Z,11.29
2022-09-17T18:00:41.402Z,11.28
2022-09-17T18:04:00.729Z,11.32
2022-09-17T18:07:29.425Z,11.40
2022-09-17T18:10:33.625Z,11.36
2022-09-17T18:13:38.366Z,11.41
2022-09-17T18:16:41.825Z,11.33
2022-09-17T18:19:44.843Z,11.46
2022-09-17T18:23:05.528Z,11.45
2022-09-17T18:26:12.313Z,11.51
2022-09-17T18:29:15.375Z,11.39
2022-09-17T18:32:19.083Z,11.47
2022-09-17T18:35:23.436Z,11.38
2022-09-17T18:38:26.517Z,11.36
2022-09-17T18:41:37.470Z,11.28
2022-09-17T18:44:40.219Z,11.28
2022-09-17T18:47:44.930Z,11.27
2022-09-17T18:51:10.062Z,11.32
2022-09-17T18:54:13.444Z,11.40
2022-09-17T18:57:16.384Z,11.39
2022-09-17T19:00:20.657Z,11.38
2022-09-17T19:03:23.634Z,11.37
2022-09-17T19:06:30.531Z,11.34
2022-09-17T19:09:33.443Z,11.33
2022-09-17T19:12:36.687Z,11.28
2022-09-17T19:15:39.498Z,11.36
2022-09-17T19:18:43.210Z,11.27
2022-09-17T19:21:45.863Z,11.27
2022-09-17T19:24:48.952Z,11.35
2022-09-17T19:27:55.941Z,11.31
2022-09-17T19:30:59.626Z,11.35
2022-09-17T19:34:02.612Z,11.37
2022-09-17T19:37:06.230Z,11.32
2022-09-17T19:40:10.962Z,11.30
2022-09-17T19:43:15.095Z,11.26
2022-09-17T19:46:20.842Z,11.25
2022-09-17T19:49:33.774Z,11.19
2022-09-17T19:52:36.606Z,11.28
2022-09-17T19:55:39.699Z,11.10
2022-09-17T19:58:43.078Z,11.18
2022-09-17T20:01:49.293Z,11.06
2022-09-17T20:04:52.699Z,11.11
2022-09-17T20:07:56.094Z,11.03
2022-09-17T20:11:10.613Z,11.11
2022-09-17T20:14:14.234Z,11.16
2022-09-17T20:17:21.371Z,11.03
2022-09-17T20:20:28.420Z,10.99
2022-09-17T20:23:52.403Z,10.98
2022-09-17T20:26:55.263Z,10.98
2022-09-17T20:30:00.703Z,10.87
2022-09-17T20:33:04.878Z,10.83
2022-09-17T20:36:12.396Z,10.79
2022-09-17T20:39:22.965Z,10.85
2022-09-17T20:42:26.460Z,10.79
2022-09-17T20:45:29.243Z,10.94
2022-09-17T20:48:33.451Z,10.90
2022-09-17T20:51:37.142Z,10.86
2022-09-17T20:55:00.880Z,10.75
2022-09-17T20:58:03.860Z,10.80
2022-09-17T21:01:20.571Z,10.73
2022-09-17T21:04:27.266Z,10.68
2022-09-17T21:07:33.210Z,10.77
2022-09-17T21:10:42.534Z,10.79
2022-09-17T21:13:46.433Z,10.77
2022-09-17T21:17:06.930Z,10.77
2022-09-17T21:20:10.566Z,10.75
2022-09-17T21:23:14.583Z,10.78
2022-09-17T21:26:20.813Z,10.81
2022-09-17T21:29:24.006Z,10.72
2022-09-17T21:32:45.557Z,10.63
2022-09-17T21:35:50.582Z,10.63
2022-09-17T21:39:02.550Z,10.72
2022-09-17T21:42:26.974Z,10.56
2022-09-17T21:45:36.679Z,10.59
2022-09-17T21:48:53.163Z,10.48
2022-09-17T21:51:57.529Z,10.51
2022-09-17T21:55:03.329Z,10.37
2022-09-17T21:58:08.139Z,10.30
2022-09-17T22:01:18.716Z,10.29
2022-09-17T22:04:25.791Z,10.25
2022-09-17T22:07:48.381Z,10.17
2022-09-17T22:11:07.252Z,10.17
2022-09-17T22:14:13.190Z,10.23
2022-09-17T22:17:18.426Z,10.15
2022-09-17T22:20:25.548Z,10.18
2022-09-17T22:23:32.604Z,10.10
2022-09-17T22:26:57.721Z,10.15
2022-09-17T22:30:03.821Z,10.19
2022-09-17T22:33:26.911Z,10.12
2022-09-17T22:36:30.186Z,10.12
2022-09-17T22:39:33.677Z,10.05
2022-09-17T22:42:36.903Z,10.06
2022-09-17T22:45:43.512Z,10.05
2022-09-17T22:48:47.513Z,9.98
2022-09-17T22:51:50.572Z,9.91
2022-09-17T22:54:53.610Z,9.90
2022-09-17T22:57:56.291Z,10.02
2022-09-17T23:01:13.017Z,10.02
2022-09-17T23:04:15.837Z,10.08
2022-09-17T23:07:18.785Z,10.01
2022-09-17T23:10:23.681Z,9.96
2022-09-17T23:13:27.497Z,9.95
2022-09-17T23:16:45.030Z,9.94
2022-09-17T23:19:49.190Z,9.97
2022-09-17T23:23:12.083Z,9.99
2022-09-17T23:26:21.258Z,9.95
2022-09-17T23:29:24.214Z,10.00
2022-09-17T23:32:27.218Z,9.95
2022-09-17T23:35:30.094Z,9.83
2022-09-17T23:38:33.774Z,9.98
2022-09-17T23:41:40.653Z,9.99
2022-09-17T23:44:43.583Z,9.81
2022-09-17T23:47:46.326Z,9.79
2022-09-17T23:50:49.764Z,9.87
2022-09-17T23:53:54.637Z,9.80
2022-09-17T23:56:58.194Z,9.96
